sensor_id;sensor_type;location;lat;lon;timestamp;pressure;altitude;pressure_sealevel;temperature;humidity
75604;BME280;64187;51.010;13.792;2023-02-22T00:00:45;100359.16;;;10.92;65.47
75604;BME280;64187;51.010;13.792;2023-02-22T00:05:46;100354.28;;;10.77;66.34
75604;BME280;64187;51.010;13.792;2023-02-22T00:10:45;100344.19;;;10.44;67.34
75604;BME280;64187;51.010;13.792;2023-02-22T00:15:44;100349.81;;;10.54;66.56
75604;BME280;64187;51.010;13.792;2023-02-22T00:20:43;100352.91;;;10.75;66.58
75604;BME280;64187;51.010;13.792;2023-02-22T00:25:42;100343.78;;;10.64;66.77
75604;BME280;64187;51.010;13.792;2023-02-22T00:30:41;100340.00;;;10.65;66.84
75604;BME280;64187;51.010;13.792;2023-02-22T00:35:44;100343.59;;;10.54;67.51
75604;BME280;64187;51.010;13.792;2023-02-22T00:40:44;100339.84;;;10.43;67.69
75604;BME280;64187;51.010;13.792;2023-02-22T00:45:43;100341.41;;;10.16;68.65
75604;BME280;64187;51.010;13.792;2023-02-22T00:50:42;100342.38;;;10.09;68.91
75604;BME280;64187;51.010;13.792;2023-02-22T00:55:40;100341.25;;;9.82;69.57
75604;BME280;64187;51.010;13.792;2023-02-22T01:00:41;100338.09;;;9.73;70.06
75604;BME280;64187;51.010;13.792;2023-02-22T01:05:40;100337.16;;;9.67;70.72
75604;BME280;64187;51.010;13.792;2023-02-22T01:10:39;100336.16;;;10.09;68.93
75604;BME280;64187;51.010;13.792;2023-02-22T01:15:40;100339.00;;;9.90;69.92
75604;BME280;64187;51.010;13.792;2023-02-22T01:20:39;100342.06;;;9.70;70.84
75604;BME280;64187;51.010;13.792;2023-02-22T01:25:38;100335.72;;;9.88;69.84
75604;BME280;64187;51.010;13.792;2023-02-22T01:30:37;100336.31;;;9.79;70.01
75604;BME280;64187;51.010;13.792;2023-02-22T01:35:37;100337.16;;;9.67;70.68
75604;BME280;64187;51.010;13.792;2023-02-22T01:40:42;100329.00;;;9.91;69.62
75604;BME280;64187;51.010;13.792;2023-02-22T01:46:05;100332.88;;;9.95;69.54
75604;BME280;64187;51.010;13.792;2023-02-22T01:51:07;100331.09;;;10.01;69.09
75604;BME280;64187;51.010;13.792;2023-02-22T01:56:10;100321.25;;;10.06;68.78
75604;BME280;64187;51.010;13.792;2023-02-22T02:01:10;100323.97;;;9.95;69.06
75604;BME280;64187;51.010;13.792;2023-02-22T02:06:13;100319.97;;;9.85;69.55
75604;BME280;64187;51.010;13.792;2023-02-22T02:11:12;100321.97;;;9.90;69.60
75604;BME280;64187;51.010;13.792;2023-02-22T02:16:12;100316.56;;;9.90;69.51
75604;BME280;64187;51.010;13.792;2023-02-22T02:32:00;100298.00;;;10.22;68.43
75604;BME280;64187;51.010;13.792;2023-02-22T02:42:22;100294.44;;;9.93;70.59
75604;BME280;64187;51.010;13.792;2023-02-22T02:47:26;100290.22;;;9.97;69.65
75604;BME280;64187;51.010;13.792;2023-02-22T02:52:28;100290.09;;;10.04;69.89
75604;BME280;64187;51.010;13.792;2023-02-22T02:57:27;100292.03;;;10.08;69.56
75604;BME280;64187;51.010;13.792;2023-02-22T03:08:45;100293.72;;;10.09;69.71
75604;BME280;64187;51.010;13.792;2023-02-22T03:24:32;100283.28;;;9.89;69.47
75604;BME280;64187;51.010;13.792;2023-02-22T03:29:38;100275.41;;;9.88;70.32
75604;BME280;64187;51.010;13.792;2023-02-22T03:34:47;100284.84;;;9.74;71.56
75604;BME280;64187;51.010;13.792;2023-02-22T03:39:53;100285.19;;;9.77;71.56
75604;BME280;64187;51.010;13.792;2023-02-22T03:44:55;100279.41;;;9.97;70.67
75604;BME280;64187;51.010;13.792;2023-02-22T03:50:08;100272.88;;;10.10;70.41
75604;BME280;64187;51.010;13.792;2023-02-22T03:55:10;100275.50;;;9.93;70.89
75604;BME280;64187;51.010;13.792;2023-02-22T04:00:12;100275.50;;;10.05;70.45
75604;BME280;64187;51.010;13.792;2023-02-22T04:05:14;100273.78;;;9.87;70.92
75604;BME280;64187;51.010;13.792;2023-02-22T04:10:15;100268.91;;;9.25;72.86
75604;BME280;64187;51.010;13.792;2023-02-22T04:15:18;100268.88;;;9.01;73.50
75604;BME280;64187;51.010;13.792;2023-02-22T04:20:19;100267.56;;;8.80;74.28
75604;BME280;64187;51.010;13.792;2023-02-22T04:25:26;100273.63;;;8.64;74.61
75604;BME280;64187;51.010;13.792;2023-02-22T04:30:27;100274.53;;;8.28;75.90
75604;BME280;64187;51.010;13.792;2023-02-22T04:35:28;100266.06;;;8.43;74.98
75604;BME280;64187;51.010;13.792;2023-02-22T04:40:27;100269.44;;;8.19;75.63
75604;BME280;64187;51.010;13.792;2023-02-22T04:45:26;100272.13;;;8.08;76.16
75604;BME280;64187;51.010;13.792;2023-02-22T04:50:25;100264.50;;;8.65;73.78
75604;BME280;64187;51.010;13.792;2023-02-22T04:55:26;100258.72;;;8.50;74.86
75604;BME280;64187;51.010;13.792;2023-02-22T05:00:28;100269.28;;;8.63;74.41
75604;BME280;64187;51.010;13.792;2023-02-22T05:05:31;100266.88;;;8.85;73.43
75604;BME280;64187;51.010;13.792;2023-02-22T05:10:30;100266.91;;;9.20;71.52
75604;BME280;64187;51.010;13.792;2023-02-22T05:15:29;100269.91;;;8.89;72.27
75604;BME280;64187;51.010;13.792;2023-02-22T05:20:34;100271.47;;;8.96;72.03
75604;BME280;64187;51.010;13.792;2023-02-22T05:25:33;100261.84;;;9.36;70.49
75604;BME280;64187;51.010;13.792;2023-02-22T05:30:34;100262.09;;;9.11;71.26
75604;BME280;64187;51.010;13.792;2023-02-22T05:35:33;100256.69;;;12.77;73.75
75604;BME280;64187;51.010;13.792;2023-02-22T05:40:34;100262.03;;;13.79;64.05
75604;BME280;64187;51.010;13.792;2023-02-22T05:45:34;100258.44;;;14.47;56.88
75604;BME280;64187;51.010;13.792;2023-02-22T05:50:33;100261.59;;;14.18;56.92
75604;BME280;64187;51.010;13.792;2023-02-22T05:55:32;100258.78;;;13.87;59.37
75604;BME280;64187;51.010;13.792;2023-02-22T06:00:32;100260.41;;;14.72;55.25
75604;BME280;64187;51.010;13.792;2023-02-22T06:05:31;100276.06;;;13.61;55.81
75604;BME280;64187;51.010;13.792;2023-02-22T06:10:31;100269.25;;;11.63;61.94
75604;BME280;64187;51.010;13.792;2023-02-22T06:15:30;100275.03;;;10.65;65.43
75604;BME280;64187;51.010;13.792;2023-02-22T06:20:29;100282.19;;;10.02;68.35
75604;BME280;64187;51.010;13.792;2023-02-22T06:25:30;100275.69;;;9.63;69.77
75604;BME280;64187;51.010;13.792;2023-02-22T06:30:29;100273.09;;;9.56;70.55
75604;BME280;64187;51.010;13.792;2023-02-22T06:35:28;100279.09;;;9.58;70.78
75604;BME280;64187;51.010;13.792;2023-02-22T06:40:27;100277.84;;;9.49;71.34
75604;BME280;64187;51.010;13.792;2023-02-22T06:45:28;100286.63;;;9.56;71.42
75604;BME280;64187;51.010;13.792;2023-02-22T06:50:29;100286.63;;;9.68;71.43
75604;BME280;64187;51.010;13.792;2023-02-22T06:55:31;100284.28;;;9.60;71.71
75604;BME280;64187;51.010;13.792;2023-02-22T07:00:31;100295.44;;;9.63;72.26
75604;BME280;64187;51.010;13.792;2023-02-22T07:05:30;100295.09;;;9.36;72.66
75604;BME280;64187;51.010;13.792;2023-02-22T07:10:30;100300.59;;;9.65;71.79
75604;BME280;64187;51.010;13.792;2023-02-22T07:15:30;100304.72;;;9.79;71.09
75604;BME280;64187;51.010;13.792;2023-02-22T07:20:30;100304.59;;;9.74;71.31
75604;BME280;64187;51.010;13.792;2023-02-22T07:25:29;100296.34;;;10.33;69.50
75604;BME280;64187;51.010;13.792;2023-02-22T07:30:31;100305.81;;;10.19;68.87
75604;BME280;64187;51.010;13.792;2023-02-22T07:35:43;100316.50;;;10.13;69.88
75604;BME280;64187;51.010;13.792;2023-02-22T07:40:42;100312.00;;;10.31;69.12
75604;BME280;64187;51.010;13.792;2023-02-22T07:45:42;100317.41;;;10.31;69.52
75604;BME280;64187;51.010;13.792;2023-02-22T07:50:41;100308.59;;;10.24;69.67
75604;BME280;64187;51.010;13.792;2023-02-22T07:55:40;100309.06;;;10.21;70.03
75604;BME280;64187;51.010;13.792;2023-02-22T08:00:39;100313.44;;;10.33;68.90
75604;BME280;64187;51.010;13.792;2023-02-22T08:05:41;100307.75;;;10.35;68.53
75604;BME280;64187;51.010;13.792;2023-02-22T08:10:41;100310.94;;;10.32;68.81
75604;BME280;64187;51.010;13.792;2023-02-22T08:15:41;100303.69;;;10.49;68.70
75604;BME280;64187;51.010;13.792;2023-02-22T08:20:43;100303.69;;;10.49;68.86
75604;BME280;64187;51.010;13.792;2023-02-22T08:25:42;100308.50;;;10.59;68.46
75604;BME280;64187;51.010;13.792;2023-02-22T08:30:42;100311.69;;;10.56;68.67
75604;BME280;64187;51.010;13.792;2023-02-22T08:35:45;100303.28;;;10.86;67.83
75604;BME280;64187;51.010;13.792;2023-02-22T08:40:47;100299.59;;;11.09;66.58
75604;BME280;64187;51.010;13.792;2023-02-22T08:45:47;100291.81;;;10.96;67.39
75604;BME280;64187;51.010;13.792;2023-02-22T08:50:47;100299.75;;;10.86;67.08
75604;BME280;64187;51.010;13.792;2023-02-22T08:55:47;100290.22;;;11.00;67.24
75604;BME280;64187;51.010;13.792;2023-02-22T09:00:47;100294.19;;;11.26;65.87
75604;BME280;64187;51.010;13.792;2023-02-22T09:05:46;100303.03;;;11.38;65.69
75604;BME280;64187;51.010;13.792;2023-02-22T09:10:46;100294.81;;;11.50;65.07
75604;BME280;64187;51.010;13.792;2023-02-22T09:15:45;100292.88;;;11.29;66.00
75604;BME280;64187;51.010;13.792;2023-02-22T09:20:44;100296.38;;;11.46;64.58
75604;BME280;64187;51.010;13.792;2023-02-22T09:25:43;100299.13;;;11.68;64.30
75604;BME280;64187;51.010;13.792;2023-02-22T09:30:42;100290.38;;;11.83;62.99
75604;BME280;64187;51.010;13.792;2023-02-22T09:35:42;100293.06;;;11.61;64.45
75604;BME280;64187;51.010;13.792;2023-02-22T09:41:19;100287.06;;;11.59;64.52
75604;BME280;64187;51.010;13.792;2023-02-22T09:46:34;100280.28;;;11.78;64.25
75604;BME280;64187;51.010;13.792;2023-02-22T09:51:46;100273.75;;;11.57;64.46
75604;BME280;64187;51.010;13.792;2023-02-22T09:56:52;100262.84;;;12.13;62.96
75604;BME280;64187;51.010;13.792;2023-02-22T10:02:17;100258.19;;;12.36;62.15
75604;BME280;64187;51.010;13.792;2023-02-22T10:07:31;100256.38;;;11.75;63.23
75604;BME280;64187;51.010;13.792;2023-02-22T10:23:40;100262.59;;;12.42;61.94
75604;BME280;64187;51.010;13.792;2023-02-22T10:28:53;100251.72;;;12.42;61.21
75604;BME280;64187;51.010;13.792;2023-02-22T10:34:02;100256.56;;;12.35;61.09
75604;BME280;64187;51.010;13.792;2023-02-22T10:39:26;100246.75;;;12.61;60.85
75604;BME280;64187;51.010;13.792;2023-02-22T10:44:25;100236.78;;;12.71;60.72
75604;BME280;64187;51.010;13.792;2023-02-22T10:49:32;100236.09;;;12.54;60.95
75604;BME280;64187;51.010;13.792;2023-02-22T10:54:38;100223.38;;;12.87;60.37
75604;BME280;64187;51.010;13.792;2023-02-22T10:59:40;100231.44;;;12.49;60.56
75604;BME280;64187;51.010;13.792;2023-02-22T11:04:51;100228.56;;;12.93;59.61
75604;BME280;64187;51.010;13.792;2023-02-22T11:10:02;100218.66;;;13.14;57.94
75604;BME280;64187;51.010;13.792;2023-02-22T11:20:28;100209.81;;;13.29;57.81
75604;BME280;64187;51.010;13.792;2023-02-22T11:25:37;100203.53;;;13.29;56.86
75604;BME280;64187;51.010;13.792;2023-02-22T11:30:37;100204.25;;;13.14;56.91
75604;BME280;64187;51.010;13.792;2023-02-22T11:35:58;100194.94;;;13.42;56.60
75604;BME280;64187;51.010;13.792;2023-02-22T11:41:13;100191.78;;;13.23;56.25
75604;BME280;64187;51.010;13.792;2023-02-22T11:46:25;100185.44;;;13.45;56.01
75604;BME280;64187;51.010;13.792;2023-02-22T11:56:44;100179.28;;;13.75;54.90
75604;BME280;64187;51.010;13.792;2023-02-22T12:01:53;100180.69;;;13.83;54.17
75604;BME280;64187;51.010;13.792;2023-02-22T12:12:24;100165.69;;;13.75;53.66
75604;BME280;64187;51.010;13.792;2023-02-22T12:22:35;100165.75;;;13.95;52.94
75604;BME280;64187;51.010;13.792;2023-02-22T12:27:40;100160.31;;;14.00;52.50
75604;BME280;64187;51.010;13.792;2023-02-22T12:32:52;100163.16;;;13.53;53.53
75604;BME280;64187;51.010;13.792;2023-02-22T12:38:08;100164.06;;;13.74;53.85
75604;BME280;64187;51.010;13.792;2023-02-22T12:53:37;100151.31;;;13.85;53.60
75604;BME280;64187;51.010;13.792;2023-02-22T13:04:06;100143.38;;;13.73;53.22
75604;BME280;64187;51.010;13.792;2023-02-22T13:30:37;100132.81;;;13.87;53.33
75604;BME280;64187;51.010;13.792;2023-02-22T13:51:31;100132.50;;;13.73;54.16
75604;BME280;64187;51.010;13.792;2023-02-22T13:56:31;100126.69;;;13.44;55.20
75604;BME280;64187;51.010;13.792;2023-02-22T14:01:45;100133.63;;;13.19;55.24
75604;BME280;64187;51.010;13.792;2023-02-22T14:06:47;100126.78;;;13.17;55.56
75604;BME280;64187;51.010;13.792;2023-02-22T14:11:46;100123.31;;;13.26;55.79
75604;BME280;64187;51.010;13.792;2023-02-22T14:17:15;100120.97;;;13.40;55.48
75604;BME280;64187;51.010;13.792;2023-02-22T14:22:24;100120.28;;;13.18;55.95
75604;BME280;64187;51.010;13.792;2023-02-22T14:27:38;100106.44;;;13.19;56.18
75604;BME280;64187;51.010;13.792;2023-02-22T14:32:37;100117.53;;;13.07;56.14
75604;BME280;64187;51.010;13.792;2023-02-22T14:37:38;100107.38;;;12.87;56.02
75604;BME280;64187;51.010;13.792;2023-02-22T14:42:42;100100.66;;;13.05;56.54
75604;BME280;64187;51.010;13.792;2023-02-22T14:47:57;100096.13;;;13.26;55.27
75604;BME280;64187;51.010;13.792;2023-02-22T14:53:13;100096.91;;;13.17;56.09
75604;BME280;64187;51.010;13.792;2023-02-22T14:58:19;100091.94;;;13.03;55.51
75604;BME280;64187;51.010;13.792;2023-02-22T15:03:29;100079.91;;;12.89;56.42
75604;BME280;64187;51.010;13.792;2023-02-22T15:08:32;100086.72;;;12.91;56.89
75604;BME280;64187;51.010;13.792;2023-02-22T15:13:32;100085.81;;;12.76;57.06
75604;BME280;64187;51.010;13.792;2023-02-22T15:18:45;100087.41;;;12.71;60.45
75604;BME280;64187;51.010;13.792;2023-02-22T15:23:51;100083.94;;;12.39;63.04
75604;BME280;64187;51.010;13.792;2023-02-22T15:28:55;100077.75;;;12.43;63.95
75604;BME280;64187;51.010;13.792;2023-02-22T15:33:55;100067.88;;;12.32;65.17
75604;BME280;64187;51.010;13.792;2023-02-22T15:38:54;100069.38;;;12.13;65.43
75604;BME280;64187;51.010;13.792;2023-02-22T15:49:20;100072.16;;;11.91;66.47
75604;BME280;64187;51.010;13.792;2023-02-22T15:54:21;100073.31;;;11.73;67.87
75604;BME280;64187;51.010;13.792;2023-02-22T15:59:25;100062.28;;;11.57;68.25
75604;BME280;64187;51.010;13.792;2023-02-22T16:04:29;100068.47;;;11.26;69.55
75604;BME280;64187;51.010;13.792;2023-02-22T16:09:29;100067.88;;;11.46;68.60
75604;BME280;64187;51.010;13.792;2023-02-22T16:19:40;100069.16;;;11.16;69.24
75604;BME280;64187;51.010;13.792;2023-02-22T16:24:40;100076.16;;;11.12;68.71
75604;BME280;64187;51.010;13.792;2023-02-22T16:29:40;100072.75;;;10.99;68.98
75604;BME280;64187;51.010;13.792;2023-02-22T16:34:39;100066.44;;;11.65;74.26
75604;BME280;64187;51.010;13.792;2023-02-22T16:39:38;100071.16;;;12.77;68.60
75604;BME280;64187;51.010;13.792;2023-02-22T16:44:39;100065.91;;;13.12;65.17
75604;BME280;64187;51.010;13.792;2023-02-22T16:49:38;100065.00;;;11.84;64.14
75604;BME280;64187;51.010;13.792;2023-02-22T16:54:44;100074.63;;;11.21;66.64
75604;BME280;64187;51.010;13.792;2023-02-22T16:59:43;100079.41;;;10.92;67.28
75604;BME280;64187;51.010;13.792;2023-02-22T17:04:42;100075.56;;;10.88;67.50
75604;BME280;64187;51.010;13.792;2023-02-22T17:09:46;100077.22;;;10.89;66.87
75604;BME280;64187;51.010;13.792;2023-02-22T17:14:45;100075.81;;;10.86;67.12
75604;BME280;64187;51.010;13.792;2023-02-22T17:19:44;100075.47;;;10.83;66.87
75604;BME280;64187;51.010;13.792;2023-02-22T17:24:43;100074.84;;;10.75;67.18
75604;BME280;64187;51.010;13.792;2023-02-22T17:29:42;100082.66;;;10.72;66.90
75604;BME280;64187;51.010;13.792;2023-02-22T17:34:42;100084.69;;;10.82;66.49
75604;BME280;64187;51.010;13.792;2023-02-22T17:39:41;100084.13;;;10.63;67.26
75604;BME280;64187;51.010;13.792;2023-02-22T17:44:40;100090.47;;;10.68;67.05
75604;BME280;64187;51.010;13.792;2023-02-22T17:49:40;100078.91;;;10.56;67.47
75604;BME280;64187;51.010;13.792;2023-02-22T17:54:38;100080.38;;;10.64;66.92
75604;BME280;64187;51.010;13.792;2023-02-22T17:59:37;100076.88;;;10.46;67.62
75604;BME280;64187;51.010;13.792;2023-02-22T18:04:38;100081.63;;;10.39;67.99
75604;BME280;64187;51.010;13.792;2023-02-22T18:09:37;100079.09;;;10.49;67.90
75604;BME280;64187;51.010;13.792;2023-02-22T18:14:36;100074.00;;;10.19;68.70
75604;BME280;64187;51.010;13.792;2023-02-22T18:19:36;100071.31;;;10.36;68.25
75604;BME280;64187;51.010;13.792;2023-02-22T18:24:34;100070.47;;;10.19;68.78
75604;BME280;64187;51.010;13.792;2023-02-22T18:29:33;100068.66;;;10.07;69.52
75604;BME280;64187;51.010;13.792;2023-02-22T18:34:32;100065.63;;;10.04;69.47
75604;BME280;64187;51.010;13.792;2023-02-22T18:39:32;100054.16;;;9.97;69.15
75604;BME280;64187;51.010;13.792;2023-02-22T18:44:38;100056.09;;;9.84;70.23
75604;BME280;64187;51.010;13.792;2023-02-22T18:49:37;100052.38;;;9.74;70.28
75604;BME280;64187;51.010;13.792;2023-02-22T18:54:40;100045.03;;;9.86;70.13
75604;BME280;64187;51.010;13.792;2023-02-22T18:59:41;100047.97;;;9.67;70.66
75604;BME280;64187;51.010;13.792;2023-02-22T19:04:40;100042.91;;;9.88;69.68
75604;BME280;64187;51.010;13.792;2023-02-22T19:09:41;100052.81;;;9.82;69.56
75604;BME280;64187;51.010;13.792;2023-02-22T19:14:40;100042.69;;;9.61;70.61
75604;BME280;64187;51.010;13.792;2023-02-22T19:19:39;100039.59;;;9.52;70.72
75604;BME280;64187;51.010;13.792;2023-02-22T19:24:38;100039.09;;;9.55;70.56
75604;BME280;64187;51.010;13.792;2023-02-22T19:29:38;100031.47;;;9.52;70.72
75604;BME280;64187;51.010;13.792;2023-02-22T19:34:40;100031.91;;;9.32;71.32
75604;BME280;64187;51.010;13.792;2023-02-22T19:39:41;100021.69;;;9.34;71.16
75604;BME280;64187;51.010;13.792;2023-02-22T19:44:41;100025.13;;;9.30;71.58
75604;BME280;64187;51.010;13.792;2023-02-22T19:49:39;100018.06;;;9.28;71.54
75604;BME280;64187;51.010;13.792;2023-02-22T19:54:38;100026.16;;;9.28;71.69
75604;BME280;64187;51.010;13.792;2023-02-22T19:59:37;100025.00;;;8.84;73.38
75604;BME280;64187;51.010;13.792;2023-02-22T20:04:36;100027.69;;;8.84;73.35
75604;BME280;64187;51.010;13.792;2023-02-22T20:09:35;100029.19;;;8.92;73.20
75604;BME280;64187;51.010;13.792;2023-02-22T20:14:36;100023.75;;;8.75;73.57
75604;BME280;64187;51.010;13.792;2023-02-22T20:19:36;100017.78;;;8.61;73.98
75604;BME280;64187;51.010;13.792;2023-02-22T20:24:36;100021.75;;;8.70;74.01
75604;BME280;64187;51.010;13.792;2023-02-22T20:29:35;100027.28;;;8.28;75.54
75604;BME280;64187;51.010;13.792;2023-02-22T20:34:33;100023.75;;;8.39;75.19
75604;BME280;64187;51.010;13.792;2023-02-22T20:39:33;100018.97;;;8.41;74.89
75604;BME280;64187;51.010;13.792;2023-02-22T20:44:32;100013.56;;;8.41;75.07
75604;BME280;64187;51.010;13.792;2023-02-22T20:49:31;100021.19;;;8.45;74.40
75604;BME280;64187;51.010;13.792;2023-02-22T20:54:30;100013.19;;;8.38;74.93
75604;BME280;64187;51.010;13.792;2023-02-22T20:59:31;100016.47;;;8.28;75.45
75604;BME280;64187;51.010;13.792;2023-02-22T21:04:30;100010.50;;;8.26;75.29
75604;BME280;64187;51.010;13.792;2023-02-22T21:09:30;100016.38;;;8.23;75.31
75604;BME280;64187;51.010;13.792;2023-02-22T21:14:32;100017.66;;;8.20;75.57
75604;BME280;64187;51.010;13.792;2023-02-22T21:19:32;100017.75;;;8.02;76.14
75604;BME280;64187;51.010;13.792;2023-02-22T21:24:31;100011.06;;;8.16;75.57
75604;BME280;64187;51.010;13.792;2023-02-22T21:29:31;100008.88;;;8.25;75.15
75604;BME280;64187;51.010;13.792;2023-02-22T21:34:33;100003.47;;;8.13;75.32
75604;BME280;64187;51.010;13.792;2023-02-22T21:39:32;100006.06;;;8.20;75.17
75604;BME280;64187;51.010;13.792;2023-02-22T21:44:31;100000.66;;;8.20;74.99
75604;BME280;64187;51.010;13.792;2023-02-22T21:49:30;99991.63;;;8.14;75.24
75604;BME280;64187;51.010;13.792;2023-02-22T21:54:29;99988.34;;;8.24;74.73
75604;BME280;64187;51.010;13.792;2023-02-22T21:59:28;99988.31;;;7.89;76.25
75604;BME280;64187;51.010;13.792;2023-02-22T22:04:28;99982.94;;;8.01;75.70
75604;BME280;64187;51.010;13.792;2023-02-22T22:09:28;99980.03;;;7.90;75.93
75604;BME280;64187;51.010;13.792;2023-02-22T22:14:31;99969.94;;;7.86;75.85
75604;BME280;64187;51.010;13.792;2023-02-22T22:19:32;99977.22;;;7.85;76.00
75604;BME280;64187;51.010;13.792;2023-02-22T22:29:43;99977.91;;;7.81;76.07
75604;BME280;64187;51.010;13.792;2023-02-22T22:34:42;99972.06;;;7.95;75.22
75604;BME280;64187;51.010;13.792;2023-02-22T22:39:41;99978.94;;;7.80;75.94
75604;BME280;64187;51.010;13.792;2023-02-22T22:44:40;99971.69;;;7.80;76.13
75604;BME280;64187;51.010;13.792;2023-02-22T22:49:39;99970.53;;;7.88;75.50
75604;BME280;64187;51.010;13.792;2023-02-22T22:54:39;99972.16;;;7.89;75.54
75604;BME280;64187;51.010;13.792;2023-02-22T22:59:38;99969.66;;;7.64;76.50
75604;BME280;64187;51.010;13.792;2023-02-22T23:04:37;99977.78;;;7.87;75.57
75604;BME280;64187;51.010;13.792;2023-02-22T23:09:36;99975.69;;;8.01;74.81
75604;BME280;64187;51.010;13.792;2023-02-22T23:14:39;99983.06;;;7.94;74.93
75604;BME280;64187;51.010;13.792;2023-02-22T23:19:43;99989.75;;;8.03;74.46
75604;BME280;64187;51.010;13.792;2023-02-22T23:24:42;99977.78;;;7.75;75.55
75604;BME280;64187;51.010;13.792;2023-02-22T23:29:42;99989.03;;;7.84;75.15
75604;BME280;64187;51.010;13.792;2023-02-22T23:34:44;99989.63;;;7.86;75.26
75604;BME280;64187;51.010;13.792;2023-02-22T23:39:47;99980.59;;;7.92;74.54
75604;BME280;64187;51.010;13.792;2023-02-22T23:44:46;99985.50;;;7.84;74.59
75604;BME280;64187;51.010;13.792;2023-02-22T23:49:45;99979.88;;;7.97;73.95
75604;BME280;64187;51.010;13.792;2023-02-22T23:54:47;99987.13;;;7.85;74.60
75604;BME280;64187;51.010;13.792;2023-02-22T23:59:49;99981.41;;;7.81;74.73
